TimeEST,TemperatureF,Dew PointF,Humidity,Sea Level PressureIn,VisibilityMPH,Wind Direction,Wind SpeedMPH,Gust SpeedMPH,PrecipitationIn,Events,Conditions,WindDirDegrees,DateUTC
12:54 AM,44.1,26.1,49,29.90,10.0,Variable,4.6,-,N/A,,Clear,0,2012-11-24 05:54:00
1:54 AM,43.0,25.0,49,29.90,10.0,WNW,9.2,18.4,N/A,,Clear,300,2012-11-24 06:54:00
2:54 AM,39.9,24.1,53,29.91,10.0,West,9.2,16.1,N/A,,Clear,280,2012-11-24 07:54:00
3:54 AM,39.0,23.0,53,29.91,10.0,WNW,9.2,-,N/A,,Clear,300,2012-11-24 08:54:00
4:54 AM,37.0,21.0,52,29.93,10.0,NW,4.6,-,N/A,,Clear,320,2012-11-24 09:54:00
5:54 AM,35.1,21.0,57,29.95,10.0,Calm,Calm,-,N/A,,Clear,0,2012-11-24 10:54:00
6:54 AM,28.9,19.9,69,29.98,10.0,Calm,Calm,-,N/A,,Clear,0,2012-11-24 11:54:00
7:54 AM,34.0,19.9,56,30.00,10.0,Variable,5.8,-,N/A,,Clear,0,2012-11-24 12:54:00
8:54 AM,37.9,19.0,47,30.02,10.0,Variable,3.5,-,N/A,,Clear,0,2012-11-24 13:54:00
9:54 AM,37.9,18.0,45,30.03,10.0,North,8.1,-,N/A,,Clear,10,2012-11-24 14:54:00
10:54 AM,39.9,18.0,41,30.03,10.0,Variable,4.6,-,N/A,,Clear,0,2012-11-24 15:54:00
11:54 AM,42.1,18.0,38,30.01,10.0,Variable,6.9,19.6,N/A,,Clear,0,2012-11-24 16:54:00
12:54 PM,42.1,16.0,35,29.99,10.0,Variable,5.8,-,N/A,,Clear,0,2012-11-24 17:54:00
1:54 PM,44.1,16.0,32,29.99,10.0,WNW,10.4,-,N/A,,Clear,300,2012-11-24 18:54:00
2:54 PM,42.1,15.1,34,30.00,10.0,NW,10.4,18.4,N/A,,Clear,310,2012-11-24 19:54:00
3:54 PM,39.9,15.1,36,30.02,10.0,WNW,9.2,16.1,N/A,,Clear,300,2012-11-24 20:54:00
4:54 PM,37.0,15.1,41,30.05,10.0,WNW,9.2,-,N/A,,Clear,300,2012-11-24 21:54:00
5:54 PM,34.0,15.1,46,30.09,10.0,NW,4.6,-,N/A,,Clear,320,2012-11-24 22:54:00
6:54 PM,33.1,15.1,48,30.11,10.0,WNW,3.5,-,N/A,,Clear,300,2012-11-24 23:54:00
7:54 PM,32.0,15.1,50,30.11,10.0,NW,4.6,-,N/A,,Clear,310,2012-11-25 00:54:00
8:54 PM,30.0,16.0,56,30.11,10.0,NW,4.6,-,N/A,,Clear,310,2012-11-25 01:54:00
9:54 PM,25.0,16.0,69,30.12,10.0,Calm,Calm,-,N/A,,Clear,0,2012-11-25 02:54:00
10:54 PM,24.1,16.0,71,30.12,10.0,Calm,Calm,-,N/A,,Clear,0,2012-11-25 03:54:00
11:54 PM,24.1,16.0,71,30.11,10.0,South,5.8,-,N/A,,Clear,170,2012-11-25 04:54:00